This is the latest recevied weather packets stored in our database for station/object WA9AFM. If no packets are shown the sender has not sent any weather packets the latest 10 day(s).
| Time | Temp. | Humidity | Pressure | Rain* | Wind** | Luminosity | Snow |
|---|---|---|---|---|---|---|---|
| 1787518104 | 38.89° C | 37% | 1007.4 hPa | 0 mm | - | - | - |
| 1787517206 | 38.89° C | 36% | 1007.8 hPa | 0 mm | - | - | - |
| 1787516305 | 39.44° C | 37% | 1008 hPa | 0 mm | - | - | - |
| 1787515405 | 38.89° C | 38% | 1008.1 hPa | 0 mm | - | - | - |
| 1787514504 | 38.89° C | 38% | 1008.4 hPa | 0 mm | - | - | - |
| 1787513606 | 37.78° C | 39% | 1008.9 hPa | 0 mm | - | - | - |
| 1787512840 | 37.78° C | 39% | 1008.9 hPa | 0 mm | - | - | - |
| 1787511941 | 36.67° C | 40% | 1009 hPa | 0 mm | - | - | - |
| 1787511041 | 37.22° C | 41% | 1009.2 hPa | 0 mm | - | - | - |
| 1787510140 | 37.22° C | 41% | 1009.4 hPa | 0 mm | - | - | - |
| 1787509241 | 37.22° C | 42% | 1009.6 hPa | 0 mm | - | - | - |
| 1787508341 | 36.67° C | 43% | 1009.8 hPa | 0 mm | - | - | - |
| 1787507441 | 36.11° C | 44% | 1010 hPa | 0 mm | - | - | - |
| 1787506540 | 35.56° C | 44% | 1010.3 hPa | 0 mm | - | - | - |
| 1787505641 | 35° C | 46% | 1010.4 hPa | 0 mm | - | - | - |
| 1787504740 | 34.44° C | 47% | 1010.9 hPa | 0 mm | - | - | - |
| 1787503842 | 33.89° C | 49% | 1010.9 hPa | 0 mm | - | - | - |
| 1787502941 | 33.33° C | 53% | 1011 hPa | 0 mm | - | - | - |
| 1787502040 | 32.78° C | 54% | 1011 hPa | 0 mm | - | - | - |
| 1787501141 | 31.67° C | 56% | 1011 hPa | 0 mm | - | - | - |
| 1787500240 | 31.11° C | 57% | 1011 hPa | 0 mm | - | - | - |
| 1787499340 | 30.56° C | 59% | 1011 hPa | 0 mm | - | - | - |
| 1787498441 | 30° C | 61% | 1010.9 hPa | 0 mm | - | - | - |
| 1787497540 | 28.89° C | 64% | 1011 hPa | 0 mm | - | - | - |
| 1787496642 | 27.78° C | 68% | 1011.1 hPa | 0 mm | - | - | - |
* Rain latest hour (hover to see other rain measurements)
** Current wind speed in m/s (hover to see current wind gust speed)